This is the latest recevied weather packets stored in our database for station/object KI4LAX-13. If no packets are shown the sender has not sent any weather packets the latest 10 day(s).
| Time | Temp. | Humidity | Pressure | Rain* | Wind** | Luminosity | Snow |
|---|---|---|---|---|---|---|---|
| 1787467448 | 22.22° C | 93% | 1020.2 hPa | 0 mm | - | 0 W/m² | - |
| 1787465648 | 22.22° C | 92% | 1020.3 hPa | 0 mm | - | 0 W/m² | - |
| 1787463848 | 22.78° C | 90% | 1020.3 hPa | 0 mm | - | 0 W/m² | - |
| 1787462048 | 23.33° C | 90% | 1020.8 hPa | 0 mm | - | 0 W/m² | - |
| 1787460248 | 23.33° C | 89% | 1020.7 hPa | 0 mm | - | 0 W/m² | - |
| 1787458448 | 23.33° C | 88% | 1021 hPa | 0 mm | - | 0 W/m² | - |
| 1787456648 | 23.33° C | 89% | 1021 hPa | 0 mm | - | 0 W/m² | - |
| 1787454848 | 23.33° C | 87% | 1020.6 hPa | 0 mm | - | 0 W/m² | - |
| 1787451248 | 23.33° C | 83% | 1020.1 hPa | 0 mm | - | 0 W/m² | - |
| 1787449448 | 23.89° C | 81% | 1020.3 hPa | 0 mm | - | 0 W/m² | - |
| 1787447648 | 24.44° C | 78% | 1020.4 hPa | 0 mm | - | 0 W/m² | - |
| 1787445848 | 25.56° C | 77% | 1020.1 hPa | 0 mm | - | 0 W/m² | - |
| 1787444048 | 26.67° C | 72% | 1019.7 hPa | 0 mm | - | 4 W/m² | - |
| 1787442248 | 28.89° C | 64% | 1019.9 hPa | 0 mm | - | 11 W/m² | - |
| 1787440448 | 30° C | 56% | 1019.4 hPa | 0 mm | - | 28 W/m² | - |
| 1787438648 | 31.11° C | 51% | 1019.3 hPa | 0 mm | - | 41 W/m² | - |
| 1787436847 | 33.33° C | 49% | 1018.9 hPa | 0 mm | - | 112 W/m² | - |
| 1787435047 | 35° C | 41% | 1018.8 hPa | 0 mm | - | 350 W/m² | - |
| 1787433247 | 34.44° C | 45% | 1019.4 hPa | 0 mm | - | 434 W/m² | - |
| 1787431447 | 33.89° C | 45% | 1019.7 hPa | 0 mm | - | 523 W/m² | - |
| 1787427847 | 34.44° C | 46% | 1020.1 hPa | 0 mm | - | 658 W/m² | - |
| 1787426047 | 34.44° C | 47% | 1020.4 hPa | 0 mm | - | 689 W/m² | - |
| 1787424247 | 33.89° C | 44% | 1020.5 hPa | 0 mm | - | 735 W/m² | - |
| 1787422447 | 31.67° C | 53% | 1021.2 hPa | 0 mm | - | 62 W/m² | - |
| 1787420647 | 31.11° C | 55% | 1021.4 hPa | 0 mm | - | 57 W/m² | - |
* Rain latest hour (hover to see other rain measurements)
** Current wind speed in m/s (hover to see current wind gust speed)